Date,TemperatureHighF,TemperatureAvgF,TemperatureLowF,DewpointHighF,DewpointAvgF,DewpointLowF,HumidityHigh,HumidityAvg,HumidityLow,PressureMaxIn,PressureMinIn,WindSpeedMaxMPH,WindSpeedAvgMPH,GustSpeedMaxMPH,PrecipitationSumIn
2013-6-1,90.1,78.2,68.0,81.1,73.4,67.4,98,87,59,29.85,29.65,9,3,0,0.70
2013-6-2,81.0,72.4,67.1,80.3,71.6,66.5,98,97,83,29.70,29.54,14,3,0,0.68
2013-6-3,69.4,62.2,55.9,68.8,57.9,47.9,98,87,51,29.80,29.65,12,6,0,0.00
2013-6-4,67.6,57.3,50.4,55.0,50.0,45.5,98,79,46,30.07,29.78,14,5,0,0.00
2013-6-5,69.4,59.0,44.8,55.7,46.8,42.4,98,68,39,30.19,30.07,8,2,0,0.00
2013-6-6,64.6,56.2,48.6,61.5,53.4,44.7,98,92,51,30.14,30.03,4,1,0,0.34
2013-6-7,59.9,56.2,54.5,59.3,55.6,53.9,98,98,98,30.02,29.85,10,4,0,0.43
2013-6-8,63.1,57.8,53.6,62.6,57.3,53.0,98,98,98,29.95,29.77,5,1,0,0.40
2013-6-9,83.1,67.9,59.2,73.5,60.0,52.7,98,80,38,30.13,29.95,10,3,0,0.00
2013-6-10,83.7,69.3,54.1,70.1,60.4,52.7,98,78,37,30.15,29.90,10,2,0,0.01
2013-6-11,62.1,58.5,55.9,61.5,57.9,55.4,98,98,98,29.90,29.59,13,4,0,1.46
2013-6-12,76.6,62.2,56.1,68.7,59.6,55.6,98,93,59,29.81,29.66,9,3,0,0.24
2013-6-13,80.2,66.3,50.5,70.8,59.4,50.0,98,82,49,29.76,29.63,6,1,0,0.00
2013-6-14,82.9,67.9,55.4,67.8,54.0,40.1,98,67,30,29.82,29.64,11,3,0,0.00
2013-6-15,78.6,67.2,52.5,62.6,50.6,43.6,98,60,33,29.90,29.78,12,4,0,0.00
2013-6-16,68.4,59.7,55.2,67.2,58.0,50.8,98,95,63,29.81,29.65,7,2,0,0.64
2013-6-17,69.6,61.8,54.7,68.5,60.4,54.1,98,96,76,29.89,29.68,11,4,0,0.00
2013-6-18,74.7,61.0,46.8,62.4,50.1,41.5,98,72,37,29.97,29.87,10,3,0,0.00
2013-6-19,74.5,62.0,47.3,55.6,48.6,40.9,98,65,42,30.11,29.98,10,2,0,0.00
2013-6-20,78.6,65.0,48.4,65.3,54.1,47.8,98,72,42,30.20,30.11,7,2,0,0.00
2013-6-21,87.3,72.7,59.5,69.2,61.7,57.0,98,72,43,30.19,30.11,8,2,0,0.00
2013-6-22,69.3,66.7,64.4,68.7,66.1,63.8,98,98,98,30.13,30.02,5,1,0,0.78
2013-6-23,81.0,72.0,65.8,80.3,71.4,65.3,98,98,98,30.03,29.86,5,1,0,0.00
2013-6-24,89.8,76.5,67.6,89.1,75.9,67.1,98,98,98,29.90,29.76,15,4,0,0.30
2013-6-25,89.4,75.8,68.0,88.8,75.1,67.4,98,98,98,29.79,29.64,8,3,0,0.00
2013-6-26,82.6,72.3,62.1,82.0,71.7,61.5,98,98,98,29.72,29.66,5,2,0,0.00
2013-6-27,84.2,69.1,59.2,82.3,68.3,58.6,98,97,82,29.75,29.70,6,2,0,0.00
2013-6-28,60.4,59.0,56.7,59.9,58.5,56.1,98,98,98,29.72,29.38,11,4,0,0.98
2013-6-29,75.9,66.9,59.9,75.3,66.3,59.3,98,98,98,29.60,29.44,5,1,0,0.04
2013-6-30,80.8,69.9,61.7,75.3,67.5,61.1,98,93,68,29.89,29.60,9,2,0,0.01